createdAt,value
2023-02-12T00:00:46.933Z,1025.12
2023-02-12T00:01:46.923Z,1025.10
2023-02-12T00:02:46.919Z,1025.12
2023-02-12T00:03:47.042Z,1025.12
2023-02-12T00:04:46.892Z,1025.14
2023-02-12T00:05:46.877Z,1025.16
2023-02-12T00:06:46.860Z,1025.13
2023-02-12T00:07:46.849Z,1025.18
2023-02-12T00:08:46.851Z,1025.16
2023-02-12T00:09:46.843Z,1025.12
2023-02-12T00:10:46.811Z,1025.09
2023-02-12T00:11:46.812Z,1025.13
2023-02-12T00:12:46.784Z,1025.14
2023-02-12T00:13:46.764Z,1025.12
2023-02-12T00:14:46.814Z,1025.11
2023-02-12T00:15:46.778Z,1025.04
2023-02-12T00:16:46.715Z,1025.08
2023-02-12T00:17:46.731Z,1025.04
2023-02-12T00:18:46.713Z,1025.04
2023-02-12T00:19:46.685Z,1024.97
2023-02-12T00:20:48.664Z,1025.01
2023-02-12T00:21:46.665Z,1025.03
2023-02-12T00:22:46.663Z,1024.98
2023-02-12T00:23:46.667Z,1024.99
2023-02-12T00:24:46.664Z,1025.00
2023-02-12T00:25:46.670Z,1025.03
2023-02-12T00:26:46.618Z,1024.94
2023-02-12T00:27:46.603Z,1025.05
2023-02-12T00:28:46.605Z,1025.06
2023-02-12T00:29:46.612Z,1025.04
2023-02-12T00:30:46.688Z,1025.04
2023-02-12T00:31:46.631Z,1025.05
2023-02-12T00:32:46.539Z,1025.03
2023-02-12T00:33:46.534Z,1025.03
2023-02-12T00:34:46.508Z,1025.06
2023-02-12T00:35:46.515Z,1025.04
2023-02-12T00:36:46.523Z,1025.04
2023-02-12T00:37:46.467Z,1025.01
2023-02-12T00:38:46.458Z,1025.16
2023-02-12T00:39:46.438Z,1025.12
2023-02-12T00:40:46.466Z,1025.12
2023-02-12T00:41:46.465Z,1025.12
2023-02-12T00:42:46.420Z,1025.17
2023-02-12T00:43:46.414Z,1025.10
2023-02-12T00:44:46.420Z,1025.08
2023-02-12T00:45:46.371Z,1025.06
2023-02-12T00:46:46.486Z,1025.09
2023-02-12T00:47:46.350Z,1025.03
2023-02-12T00:48:46.368Z,1025.00
2023-02-12T00:49:46.321Z,1025.03
2023-02-12T00:50:46.329Z,1025.01
2023-02-12T00:51:46.348Z,1025.02
2023-02-12T00:52:46.355Z,1024.98
2023-02-12T00:53:46.281Z,1025.03
2023-02-12T00:54:46.297Z,1025.03
2023-02-12T00:55:46.281Z,1025.08
2023-02-12T00:56:46.318Z,1025.06
2023-02-12T00:57:46.232Z,1025.11
2023-02-12T00:58:46.263Z,1025.03
2023-02-12T00:59:46.230Z,1025.05
2023-02-12T01:00:46.233Z,1025.00
2023-02-12T01:01:46.288Z,1025.01
2023-02-12T01:02:46.194Z,1024.96
2023-02-12T01:03:46.167Z,1025.03
2023-02-12T01:04:46.197Z,1024.99
2023-02-12T01:05:46.136Z,1025.04
2023-02-12T01:06:46.166Z,1024.98
2023-02-12T01:07:46.127Z,1024.98
2023-02-12T01:08:46.144Z,1025.00
2023-02-12T01:09:46.096Z,1025.02
2023-02-12T01:10:46.161Z,1024.98
2023-02-12T01:11:46.076Z,1025.01
2023-02-12T01:12:46.093Z,1025.07
2023-02-12T01:13:46.057Z,1025.04
2023-02-12T01:14:46.088Z,1025.06
2023-02-12T01:15:46.065Z,1024.98
2023-02-12T01:16:46.122Z,1025.00
2023-02-12T01:17:46.028Z,1024.99
2023-02-12T01:18:46.026Z,1025.01
2023-02-12T01:19:46.034Z,1024.97
2023-02-12T01:20:46.006Z,1024.98
2023-02-12T01:21:45.998Z,1024.99
2023-02-12T01:22:45.975Z,1024.96
2023-02-12T01:23:45.956Z,1025.01
2023-02-12T01:24:45.977Z,1024.99
2023-02-12T01:25:45.977Z,1024.96
2023-02-12T01:26:45.902Z,1025.01
2023-02-12T01:27:45.938Z,1024.99
2023-02-12T01:28:45.899Z,1025.02
2023-02-12T01:29:45.947Z,1024.96
2023-02-12T01:30:45.930Z,1024.96
2023-02-12T01:31:45.987Z,1025.00
2023-02-12T01:32:45.874Z,1024.97
2023-02-12T01:33:45.831Z,1025.03
2023-02-12T01:34:45.823Z,1024.97
2023-02-12T01:35:45.793Z,1025.00
2023-02-12T01:36:45.799Z,1024.96
2023-02-12T01:37:45.821Z,1024.92
2023-02-12T01:38:45.794Z,1024.94
2023-02-12T01:39:45.744Z,1024.97
2023-02-12T01:40:45.771Z,1024.93
2023-02-12T01:41:45.721Z,1024.88
2023-02-12T01:42:45.790Z,1024.87
2023-02-12T01:43:45.721Z,1024.87
2023-02-12T01:44:45.707Z,1024.84
2023-02-12T01:45:45.680Z,1024.85
2023-02-12T01:46:45.773Z,1024.85
2023-02-12T01:47:45.732Z,1024.87
2023-02-12T01:48:45.681Z,1024.90
2023-02-12T01:49:45.627Z,1024.95
2023-02-12T01:50:45.630Z,1024.95
2023-02-12T01:51:45.609Z,1024.93
2023-02-12T01:52:45.662Z,1024.93
2023-02-12T01:53:45.585Z,1024.92
2023-02-12T01:54:45.617Z,1024.87
2023-02-12T01:55:45.586Z,1024.90
2023-02-12T01:56:45.585Z,1024.93
2023-02-12T01:57:45.587Z,1024.93
2023-02-12T01:58:45.565Z,1024.90
2023-02-12T01:59:45.600Z,1024.86
2023-02-12T02:00:45.537Z,1024.89
2023-02-12T02:01:45.607Z,1024.89
2023-02-12T02:02:45.489Z,1024.91
2023-02-12T02:03:45.486Z,1024.89
2023-02-12T02:04:45.470Z,1024.89
2023-02-12T02:05:45.526Z,1024.88
2023-02-12T02:06:45.441Z,1024.88
2023-02-12T02:07:45.465Z,1024.91
2023-02-12T02:08:45.449Z,1024.93
2023-02-12T02:09:45.416Z,1024.88
2023-02-12T02:10:45.390Z,1024.87
2023-02-12T02:11:45.422Z,1024.87
2023-02-12T02:12:45.372Z,1024.87
2023-02-12T02:13:45.364Z,1024.86
2023-02-12T02:14:45.352Z,1024.88
2023-02-12T02:15:45.362Z,1024.91
2023-02-12T02:16:45.456Z,1024.90
2023-02-12T02:17:45.325Z,1024.86
2023-02-12T02:18:45.334Z,1024.90
2023-02-12T02:19:45.314Z,1024.87
2023-02-12T02:20:45.305Z,1024.84
2023-02-12T02:21:45.385Z,1024.86
2023-02-12T02:22:45.323Z,1024.79
2023-02-12T02:23:45.229Z,1024.79
2023-02-12T02:24:45.228Z,1024.80
2023-02-12T02:25:45.275Z,1024.77
2023-02-12T02:26:45.230Z,1024.76
2023-02-12T02:27:45.205Z,1024.74
2023-02-12T02:28:45.259Z,1024.76
2023-02-12T02:29:45.159Z,1024.75
2023-02-12T02:30:45.326Z,1024.71
2023-02-12T02:31:45.163Z,1024.73
2023-02-12T02:32:45.157Z,1024.71
2023-02-12T02:33:45.123Z,1024.74
2023-02-12T02:34:45.167Z,1024.76
2023-02-12T02:35:45.110Z,1024.72
2023-02-12T02:36:59.231Z,1024.67
2023-02-12T02:37:46.068Z,1024.74
2023-02-12T02:38:45.102Z,1024.68
2023-02-12T02:39:45.077Z,1024.68
2023-02-12T02:40:45.071Z,1024.69
2023-02-12T02:41:45.068Z,1024.69
2023-02-12T02:42:45.021Z,1024.70
2023-02-12T02:43:45.017Z,1024.67
2023-02-12T02:44:44.992Z,1024.68
2023-02-12T02:45:44.990Z,1024.67
2023-02-12T02:46:45.019Z,1024.70
2023-02-12T02:47:44.945Z,1024.66
2023-02-12T02:48:44.972Z,1024.65
2023-02-12T02:49:44.923Z,1024.67
2023-02-12T02:50:44.944Z,1024.67
2023-02-12T02:51:44.931Z,1024.67
2023-02-12T02:52:44.920Z,1024.62
2023-02-12T02:53:44.929Z,1024.63
2023-02-12T02:54:44.913Z,1024.65
2023-02-12T02:55:44.881Z,1024.63
2023-02-12T02:56:44.910Z,1024.63
2023-02-12T02:57:44.832Z,1024.63
2023-02-12T02:58:44.894Z,1024.64
2023-02-12T02:59:44.831Z,1024.60
2023-02-12T03:00:44.879Z,1024.62
2023-02-12T03:01:44.821Z,1024.66
2023-02-12T03:02:44.880Z,1024.65
2023-02-12T03:03:44.765Z,1024.61
2023-02-12T03:04:44.791Z,1024.60
2023-02-12T03:05:44.741Z,1024.61
2023-02-12T03:06:44.755Z,1024.66
2023-02-12T03:07:44.795Z,1024.66
2023-02-12T03:08:44.716Z,1024.64
2023-02-12T03:09:44.685Z,1024.64
2023-02-12T03:10:44.753Z,1024.70
2023-02-12T03:11:44.695Z,1024.66
2023-02-12T03:12:44.692Z,1024.68
2023-02-12T03:13:44.692Z,1024.65
2023-02-12T03:14:44.674Z,1024.68
2023-02-12T03:15:44.617Z,1024.69
2023-02-12T03:16:44.690Z,1024.72
2023-02-12T03:17:44.606Z,1024.67
2023-02-12T03:18:44.649Z,1024.68
2023-02-12T03:19:44.606Z,1024.64
2023-02-12T03:20:44.604Z,1024.65
2023-02-12T03:21:44.578Z,1024.66
2023-02-12T03:22:44.580Z,1024.68
2023-02-12T03:23:44.569Z,1024.65
2023-02-12T03:24:44.567Z,1024.66
2023-02-12T03:25:44.538Z,1024.66
2023-02-12T03:26:44.515Z,1024.64
2023-02-12T03:27:44.516Z,1024.64
2023-02-12T03:28:44.512Z,1024.58
2023-02-12T03:29:44.490Z,1024.66
2023-02-12T03:30:44.506Z,1024.63
2023-02-12T03:31:44.483Z,1024.61
2023-02-12T03:32:44.482Z,1024.61
2023-02-12T03:33:44.450Z,1024.62
2023-02-12T03:34:44.420Z,1024.62
2023-02-12T03:35:44.454Z,1024.67
2023-02-12T03:36:44.400Z,1024.66
2023-02-12T03:37:44.426Z,1024.67
2023-02-12T03:38:44.380Z,1024.67
2023-02-12T03:39:44.371Z,1024.69
2023-02-12T03:40:44.346Z,1024.74
2023-02-12T03:41:44.345Z,1024.68
2023-02-12T03:42:44.384Z,1024.70
2023-02-12T03:43:44.337Z,1024.70
2023-02-12T03:44:44.299Z,1024.74
2023-02-12T03:45:44.303Z,1024.72
2023-02-12T03:46:44.298Z,1024.74
2023-02-12T03:47:44.280Z,1024.74
2023-02-12T03:48:44.247Z,1024.70
2023-02-12T03:49:44.253Z,1024.72
2023-02-12T03:50:44.246Z,1024.74
2023-02-12T03:51:44.246Z,1024.70
2023-02-12T03:52:44.234Z,1024.72
2023-02-12T03:53:44.223Z,1024.73
2023-02-12T03:54:44.179Z,1024.65
2023-02-12T03:55:44.319Z,1024.72
2023-02-12T03:56:44.193Z,1024.67
2023-02-12T03:57:44.385Z,1024.70
2023-02-12T03:58:44.161Z,1024.72
2023-02-12T03:59:44.135Z,1024.68
2023-02-12T04:00:44.161Z,1024.72
2023-02-12T04:01:44.277Z,1024.72
2023-02-12T04:02:44.166Z,1024.72
2023-02-12T04:03:44.094Z,1024.76
2023-02-12T04:04:44.200Z,1024.78
2023-02-12T04:05:44.096Z,1024.82
2023-02-12T04:06:44.068Z,1024.76
2023-02-12T04:07:44.034Z,1024.76
2023-02-12T04:08:44.017Z,1024.78
2023-02-12T04:09:44.025Z,1024.76
2023-02-12T04:10:44.046Z,1024.82
2023-02-12T04:11:43.986Z,1024.76
2023-02-12T04:12:43.966Z,1024.81
2023-02-12T04:13:43.945Z,1024.82
2023-02-12T04:14:43.958Z,1024.83
2023-02-12T04:15:44.153Z,1024.83
2023-02-12T04:16:43.975Z,1024.84
2023-02-12T04:17:43.897Z,1024.83
2023-02-12T04:18:43.925Z,1024.82
2023-02-12T04:19:43.893Z,1024.86
2023-02-12T04:20:43.902Z,1024.82
2023-02-12T04:21:43.925Z,1024.83
2023-02-12T04:22:43.874Z,1024.86
2023-02-12T04:23:43.825Z,1024.88
2023-02-12T04:24:43.863Z,1024.93
2023-02-12T04:25:43.799Z,1024.86
2023-02-12T04:26:43.949Z,1024.92
2023-02-12T04:27:43.779Z,1024.98
2023-02-12T04:28:43.780Z,1024.94
2023-02-12T04:29:43.785Z,1024.96
2023-02-12T04:30:43.863Z,1024.95
2023-02-12T04:31:43.866Z,1025.01
2023-02-12T04:32:43.799Z,1024.98
2023-02-12T04:33:43.726Z,1024.95
2023-02-12T04:34:43.714Z,1025.04
2023-02-12T04:35:43.710Z,1025.05
2023-02-12T04:36:43.695Z,1025.05
2023-02-12T04:37:43.725Z,1025.04
2023-02-12T04:38:43.676Z,1025.10
2023-02-12T04:39:43.666Z,1025.07
2023-02-12T04:40:43.673Z,1025.15
2023-02-12T04:41:43.618Z,1025.14
2023-02-12T04:42:43.609Z,1025.15
2023-02-12T04:43:43.662Z,1025.18
2023-02-12T04:44:45.343Z,1025.15
2023-02-12T04:45:43.671Z,1025.15
2023-02-12T04:46:43.586Z,1025.21
2023-02-12T04:47:43.574Z,1025.21
2023-02-12T04:48:43.576Z,1025.25
2023-02-12T04:49:43.566Z,1025.23
2023-02-12T04:50:43.533Z,1025.27
2023-02-12T04:51:43.561Z,1025.28
2023-02-12T04:52:43.520Z,1025.24
2023-02-12T04:53:43.490Z,1025.26
2023-02-12T04:54:43.496Z,1025.25
2023-02-12T04:55:43.485Z,1025.31
2023-02-12T04:56:43.442Z,1025.31
2023-02-12T04:57:43.477Z,1025.30
2023-02-12T04:58:43.451Z,1025.34
2023-02-12T04:59:43.455Z,1025.33
2023-02-12T05:00:43.403Z,1025.31
2023-02-12T05:01:43.450Z,1025.30
2023-02-12T05:02:43.376Z,1025.33
2023-02-12T05:03:43.412Z,1025.30
2023-02-12T05:04:43.380Z,1025.32
2023-02-12T05:05:43.353Z,1025.30
2023-02-12T05:06:43.374Z,1025.30
2023-02-12T05:07:43.357Z,1025.25
2023-02-12T05:08:43.330Z,1025.25
2023-02-12T05:09:43.315Z,1025.26
2023-02-12T05:10:43.343Z,1025.27
2023-02-12T05:11:43.293Z,1025.26
2023-02-12T05:12:43.262Z,1025.26
2023-02-12T05:13:43.259Z,1025.23
2023-02-12T05:14:43.262Z,1025.24
2023-02-12T05:15:43.314Z,1025.29
2023-02-12T05:16:43.272Z,1025.27
2023-02-12T05:17:43.241Z,1025.26
2023-02-12T05:18:43.211Z,1025.23
2023-02-12T05:19:43.185Z,1025.27
2023-02-12T05:20:43.189Z,1025.28
2023-02-12T05:21:43.200Z,1025.24
2023-02-12T05:22:43.158Z,1025.25
2023-02-12T05:23:43.135Z,1025.31
2023-02-12T05:24:43.143Z,1025.27
2023-02-12T05:25:43.116Z,1025.28
2023-02-12T05:26:43.166Z,1025.32
2023-02-12T05:27:43.123Z,1025.32
2023-02-12T05:28:43.103Z,1025.34
2023-02-12T05:29:43.104Z,1025.33
2023-02-12T05:30:43.200Z,1025.35
2023-02-12T05:31:43.176Z,1025.34
2023-02-12T05:32:43.155Z,1025.37
2023-02-12T05:33:43.053Z,1025.36
2023-02-12T05:34:43.034Z,1025.37
2023-02-12T05:35:43.018Z,1025.42
2023-02-12T05:36:42.982Z,1025.41
2023-02-12T05:37:42.978Z,1025.41
2023-02-12T05:38:43.054Z,1025.43
2023-02-12T05:39:42.990Z,1025.44
2023-02-12T05:40:42.929Z,1025.46
2023-02-12T05:41:42.936Z,1025.44
2023-02-12T05:42:42.955Z,1025.40
2023-02-12T05:43:42.912Z,1025.38
2023-02-12T05:44:42.996Z,1025.34
2023-02-12T05:45:42.913Z,1025.39
2023-02-12T05:46:42.888Z,1025.48
2023-02-12T05:47:42.885Z,1025.44
2023-02-12T05:48:42.857Z,1025.43
2023-02-12T05:49:42.868Z,1025.48
2023-02-12T05:50:42.838Z,1025.43
2023-02-12T05:51:42.847Z,1025.38
2023-02-12T05:52:42.790Z,1025.43
2023-02-12T05:53:42.815Z,1025.46
2023-02-12T05:54:42.805Z,1025.44
2023-02-12T05:55:42.795Z,1025.40
2023-02-12T05:56:42.760Z,1025.37
2023-02-12T05:57:42.753Z,1025.41
2023-02-12T05:58:42.724Z,1025.33
2023-02-12T05:59:42.746Z,1025.37
2023-02-12T06:00:42.698Z,1025.38
2023-02-12T06:01:42.749Z,1025.39
2023-02-12T06:02:42.721Z,1025.39
2023-02-12T06:03:42.754Z,1025.41
2023-02-12T06:04:42.660Z,1025.39
2023-02-12T06:05:42.723Z,1025.41
2023-02-12T06:06:42.683Z,1025.44
2023-02-12T06:07:42.655Z,1025.43
2023-02-12T06:08:42.626Z,1025.43
2023-02-12T06:09:42.629Z,1025.40
2023-02-12T06:10:42.579Z,1025.45
2023-02-12T06:11:42.580Z,1025.47
2023-02-12T06:12:42.556Z,1025.43
2023-02-12T06:13:42.587Z,1025.43
2023-02-12T06:14:42.580Z,1025.40
2023-02-12T06:15:42.574Z,1025.40
2023-02-12T06:16:42.606Z,1025.40
2023-02-12T06:17:42.532Z,1025.44
2023-02-12T06:18:42.531Z,1025.43
2023-02-12T06:19:42.587Z,1025.42
2023-02-12T06:20:42.489Z,1025.45
2023-02-12T06:21:42.461Z,1025.41
2023-02-12T06:22:42.432Z,1025.42
2023-02-12T06:23:42.469Z,1025.47
2023-02-12T06:24:42.423Z,1025.43
2023-02-12T06:25:42.812Z,1025.46
2023-02-12T06:26:42.404Z,1025.48
2023-02-12T06:27:42.417Z,1025.42
2023-02-12T06:28:42.366Z,1025.45
2023-02-12T06:29:42.392Z,1025.43
2023-02-12T06:30:42.372Z,1025.46
2023-02-12T06:31:42.568Z,1025.45
2023-02-12T06:32:42.329Z,1025.47
2023-02-12T06:33:42.326Z,1025.45
2023-02-12T06:34:42.299Z,1025.48
2023-02-12T06:35:42.307Z,1025.46
2023-02-12T06:36:42.301Z,1025.49
2023-02-12T06:37:42.376Z,1025.52
2023-02-12T06:38:42.350Z,1025.52
2023-02-12T06:39:42.267Z,1025.50
2023-02-12T06:40:42.257Z,1025.55
2023-02-12T06:41:42.230Z,1025.52
2023-02-12T06:42:42.216Z,1025.59
2023-02-12T06:43:42.355Z,1025.60
2023-02-12T06:44:42.208Z,1025.53
2023-02-12T06:45:42.191Z,1025.57
2023-02-12T06:46:42.249Z,1025.57
2023-02-12T06:47:42.189Z,1025.59
2023-02-12T06:48:42.147Z,1025.59
2023-02-12T06:49:42.190Z,1025.62
2023-02-12T06:50:42.139Z,1025.62
2023-02-12T06:51:42.151Z,1025.57
2023-02-12T06:52:42.093Z,1025.59
2023-02-12T06:53:42.151Z,1025.58
2023-02-12T06:54:42.092Z,1025.58
2023-02-12T06:55:42.075Z,1025.61
2023-02-12T06:56:42.085Z,1025.63
2023-02-12T06:57:42.070Z,1025.60
2023-02-12T06:58:42.057Z,1025.63
2023-02-12T06:59:43.753Z,1025.63
2023-02-12T07:00:42.046Z,1025.63
2023-02-12T07:01:42.018Z,1025.64
2023-02-12T07:02:41.977Z,1025.66
2023-02-12T07:03:42.064Z,1025.64
2023-02-12T07:04:42.004Z,1025.65
2023-02-12T07:05:41.989Z,1025.63
2023-02-12T07:06:41.958Z,1025.65
2023-02-12T07:07:41.953Z,1025.68
2023-02-12T07:08:41.907Z,1025.67
2023-02-12T07:09:42.056Z,1025.73
2023-02-12T07:10:41.914Z,1025.70
2023-02-12T07:11:41.887Z,1025.71
2023-02-12T07:12:41.885Z,1025.72
2023-02-12T07:13:41.894Z,1025.72
2023-02-12T07:14:41.869Z,1025.77
2023-02-12T07:15:41.891Z,1025.81
2023-02-12T07:16:41.820Z,1025.77
2023-02-12T07:17:41.852Z,1025.76
2023-02-12T07:18:41.798Z,1025.77
2023-02-12T07:19:41.828Z,1025.78
2023-02-12T07:20:41.905Z,1025.79
2023-02-12T07:21:41.772Z,1025.82
2023-02-12T07:22:41.767Z,1025.81
2023-02-12T07:23:41.791Z,1025.86
2023-02-12T07:24:41.758Z,1025.79
2023-02-12T07:25:41.790Z,1025.85
2023-02-12T07:26:41.701Z,1025.80
2023-02-12T07:27:41.735Z,1025.84
2023-02-12T07:28:41.710Z,1025.86
2023-02-12T07:29:41.700Z,1025.86
2023-02-12T07:30:42.746Z,1025.90
2023-02-12T07:31:41.800Z,1025.85
2023-02-12T07:32:41.641Z,1025.93
2023-02-12T07:33:41.659Z,1025.88
2023-02-12T07:34:41.612Z,1025.90
2023-02-12T07:35:41.611Z,1025.93
2023-02-12T07:36:41.620Z,1025.94
2023-02-12T07:37:41.610Z,1025.93
2023-02-12T07:38:41.617Z,1025.97
2023-02-12T07:39:41.582Z,1025.97
2023-02-12T07:40:41.560Z,1025.95
2023-02-12T07:41:41.623Z,1025.98
2023-02-12T07:42:41.513Z,1026.00
2023-02-12T07:43:41.514Z,1026.02
2023-02-12T07:44:41.527Z,1026.03
2023-02-12T07:45:41.608Z,1026.07
2023-02-12T07:46:41.506Z,1026.00
2023-02-12T07:47:41.618Z,1026.04
2023-02-12T07:48:41.447Z,1026.06
2023-02-12T07:49:41.472Z,1026.05
2023-02-12T07:50:41.452Z,1026.11
2023-02-12T07:51:41.453Z,1026.04
2023-02-12T07:52:41.425Z,1026.09
2023-02-12T07:53:41.508Z,1026.08
2023-02-12T07:54:41.411Z,1026.12
2023-02-12T07:55:41.377Z,1026.08
2023-02-12T07:56:41.371Z,1026.09
2023-02-12T07:57:41.366Z,1026.06
2023-02-12T07:58:41.388Z,1026.10
2023-02-12T07:59:41.353Z,1025.99
2023-02-12T08:00:41.338Z,1026.07
2023-02-12T08:01:41.312Z,1026.00
2023-02-12T08:02:41.348Z,1026.04
2023-02-12T08:03:41.319Z,1026.07
2023-02-12T08:04:41.468Z,1026.04
2023-02-12T08:05:41.284Z,1026.06
2023-02-12T08:06:41.259Z,1026.06
2023-02-12T08:07:41.263Z,1026.07
2023-02-12T08:08:41.306Z,1026.07
2023-02-12T08:09:41.273Z,1026.04
2023-02-12T08:10:41.216Z,1026.10
2023-02-12T08:11:41.226Z,1026.11
2023-02-12T08:12:41.196Z,1026.15
2023-02-12T08:13:41.170Z,1026.14
2023-02-12T08:14:41.179Z,1026.16
2023-02-12T08:15:41.154Z,1026.14
2023-02-12T08:16:41.205Z,1026.15
2023-02-12T08:17:41.149Z,1026.19
2023-02-12T08:18:41.092Z,1026.22
2023-02-12T08:19:41.158Z,1026.17
2023-02-12T08:20:41.102Z,1026.23
2023-02-12T08:21:41.072Z,1026.21
2023-02-12T08:22:41.056Z,1026.22
2023-02-12T08:23:41.078Z,1026.27
2023-02-12T08:24:41.032Z,1026.26
2023-02-12T08:25:41.134Z,1026.22
2023-02-12T08:26:41.019Z,1026.25
2023-02-12T08:27:41.040Z,1026.25
2023-02-12T08:28:40.974Z,1026.18
2023-02-12T08:29:40.981Z,1026.27
2023-02-12T08:30:41.004Z,1026.26
2023-02-12T08:31:41.073Z,1026.27
2023-02-12T08:32:40.935Z,1026.30
2023-02-12T08:33:40.935Z,1026.34
2023-02-12T08:34:40.919Z,1026.31
2023-02-12T08:35:40.980Z,1026.35
2023-02-12T08:36:40.918Z,1026.32
2023-02-12T08:37:40.948Z,1026.28
2023-02-12T08:38:40.867Z,1026.35
2023-02-12T08:39:40.884Z,1026.29
2023-02-12T08:40:40.883Z,1026.26
2023-02-12T08:41:40.857Z,1026.30
2023-02-12T08:42:40.819Z,1026.31
2023-02-12T08:43:40.879Z,1026.33
2023-02-12T08:44:40.833Z,1026.28
2023-02-12T08:45:40.889Z,1026.28
2023-02-12T08:46:40.771Z,1026.27
2023-02-12T08:47:40.801Z,1026.27
2023-02-12T08:48:40.834Z,1026.32
2023-02-12T08:49:40.751Z,1026.38
2023-02-12T08:50:40.726Z,1026.35
2023-02-12T08:51:40.714Z,1026.41
2023-02-12T08:52:43.023Z,1026.38
2023-02-12T08:53:40.713Z,1026.39
2023-02-12T08:54:40.727Z,1026.38
2023-02-12T08:55:40.769Z,1026.42
2023-02-12T08:56:40.699Z,1026.40
2023-02-12T08:57:40.690Z,1026.45
2023-02-12T08:58:40.670Z,1026.44
2023-02-12T08:59:40.645Z,1026.45
2023-02-12T09:00:40.650Z,1026.46
2023-02-12T09:01:40.661Z,1026.51
2023-02-12T09:02:40.666Z,1026.46
2023-02-12T09:03:40.584Z,1026.48
2023-02-12T09:04:40.601Z,1026.50
2023-02-12T09:05:40.548Z,1026.47
2023-02-12T09:06:40.586Z,1026.51
2023-02-12T09:07:40.551Z,1026.51
2023-02-12T09:08:40.581Z,1026.54
2023-02-12T09:09:40.540Z,1026.56
2023-02-12T09:10:40.523Z,1026.50
2023-02-12T09:11:40.519Z,1026.51
2023-02-12T09:12:40.552Z,1026.51
2023-02-12T09:13:40.453Z,1026.51
2023-02-12T09:14:40.486Z,1026.53
2023-02-12T09:15:42.283Z,1026.50
2023-02-12T09:16:40.603Z,1026.53
2023-02-12T09:17:40.494Z,1026.55
2023-02-12T09:18:40.433Z,1026.53
2023-02-12T09:19:40.404Z,1026.59
2023-02-12T09:20:40.411Z,1026.52
2023-02-12T09:21:40.382Z,1026.55
2023-02-12T09:22:40.369Z,1026.54
2023-02-12T09:23:40.406Z,1026.53
2023-02-12T09:24:40.339Z,1026.56
2023-02-12T09:25:40.329Z,1026.52
2023-02-12T09:26:40.321Z,1026.55
2023-02-12T09:27:40.327Z,1026.54
2023-02-12T09:28:40.387Z,1026.59
2023-02-12T09:29:40.302Z,1026.59
2023-02-12T09:30:43.017Z,1026.54
2023-02-12T09:31:40.378Z,1026.52
2023-02-12T09:32:40.314Z,1026.56
2023-02-12T09:33:40.232Z,1026.55
2023-02-12T09:34:40.353Z,1026.58
2023-02-12T09:35:40.215Z,1026.55
2023-02-12T09:36:40.223Z,1026.61
2023-02-12T09:37:40.183Z,1026.60
2023-02-12T09:38:40.182Z,1026.63
2023-02-12T09:39:40.163Z,1026.65
2023-02-12T09:40:40.369Z,1026.59
2023-02-12T09:41:40.163Z,1026.61
2023-02-12T09:42:40.167Z,1026.59
2023-02-12T09:43:40.136Z,1026.60
2023-02-12T09:44:40.124Z,1026.62
2023-02-12T09:45:40.114Z,1026.63
2023-02-12T09:46:40.165Z,1026.69
2023-02-12T09:47:40.110Z,1026.64
2023-02-12T09:48:40.075Z,1026.70
2023-02-12T09:49:40.055Z,1026.68
2023-02-12T09:50:40.072Z,1026.68
2023-02-12T09:51:40.025Z,1026.60
2023-02-12T09:52:40.087Z,1026.67
2023-02-12T09:53:40.012Z,1026.65
2023-02-12T09:54:40.017Z,1026.67
2023-02-12T09:55:40.016Z,1026.63
2023-02-12T09:56:39.988Z,1026.68
2023-02-12T09:57:40.077Z,1026.69
2023-02-12T09:58:39.973Z,1026.68
2023-02-12T09:59:39.978Z,1026.70
2023-02-12T10:00:39.944Z,1026.70
2023-02-12T10:01:39.986Z,1026.68
2023-02-12T10:02:39.966Z,1026.74
2023-02-12T10:03:39.895Z,1026.69
2023-02-12T10:04:51.609Z,1026.71
2023-02-12T10:05:40.902Z,1026.68
2023-02-12T10:06:39.929Z,1026.64
2023-02-12T10:07:39.873Z,1026.68
2023-02-12T10:08:39.872Z,1026.64
2023-02-12T10:09:39.855Z,1026.70
2023-02-12T10:10:39.836Z,1026.68
2023-02-12T10:11:39.826Z,1026.67
2023-02-12T10:12:39.920Z,1026.71
2023-02-12T10:13:39.783Z,1026.69
2023-02-12T10:14:39.800Z,1026.64
2023-02-12T10:15:39.791Z,1026.63
2023-02-12T10:16:39.785Z,1026.66
2023-02-12T10:17:39.749Z,1026.65
2023-02-12T10:18:39.769Z,1026.67
2023-02-12T10:19:39.718Z,1026.67
2023-02-12T10:20:41.418Z,1026.69
2023-02-12T10:21:39.680Z,1026.62
2023-02-12T10:22:51.362Z,1026.62
2023-02-12T10:23:40.691Z,1026.64
2023-02-12T10:24:39.710Z,1026.69
2023-02-12T10:25:39.644Z,1026.63
2023-02-12T10:26:39.647Z,1026.65
2023-02-12T10:27:39.681Z,1026.62
2023-02-12T10:28:39.707Z,1026.61
2023-02-12T10:29:39.622Z,1026.62
2023-02-12T10:30:39.652Z,1026.61
2023-02-12T10:31:39.666Z,1026.61
2023-02-12T10:32:39.574Z,1026.60
2023-02-12T10:33:39.542Z,1026.63
2023-02-12T10:34:39.544Z,1026.60
2023-02-12T10:35:39.590Z,1026.63
2023-02-12T10:36:39.520Z,1026.59
2023-02-12T10:37:39.519Z,1026.63
2023-02-12T10:38:39.515Z,1026.64
2023-02-12T10:39:39.496Z,1026.63
2023-02-12T10:40:39.496Z,1026.68
2023-02-12T10:41:39.599Z,1026.62
2023-02-12T10:42:39.482Z,1026.62
2023-02-12T10:43:39.419Z,1026.67
2023-02-12T10:44:39.419Z,1026.60
2023-02-12T10:45:39.392Z,1026.62
2023-02-12T10:46:39.486Z,1026.61
2023-02-12T10:47:39.440Z,1026.68
2023-02-12T10:48:39.403Z,1026.61
2023-02-12T10:49:39.390Z,1026.59
2023-02-12T10:50:39.352Z,1026.54
2023-02-12T10:51:39.348Z,1026.56
2023-02-12T10:52:39.352Z,1026.49
2023-02-12T10:53:39.366Z,1026.50
2023-02-12T10:54:39.307Z,1026.48
2023-02-12T10:55:39.290Z,1026.51
2023-02-12T10:56:39.282Z,1026.51
2023-02-12T10:57:39.292Z,1026.52
2023-02-12T10:58:39.318Z,1026.52
2023-02-12T10:59:39.274Z,1026.48
2023-02-12T11:00:39.262Z,1026.49
2023-02-12T11:01:39.345Z,1026.51
2023-02-12T11:02:39.240Z,1026.50
2023-02-12T11:03:39.206Z,1026.52
2023-02-12T11:04:39.237Z,1026.51
2023-02-12T11:05:39.183Z,1026.49
2023-02-12T11:06:39.180Z,1026.48
2023-02-12T11:07:39.192Z,1026.48
2023-02-12T11:08:39.270Z,1026.49
2023-02-12T11:09:39.161Z,1026.45
2023-02-12T11:10:39.136Z,1026.47
2023-02-12T11:11:39.088Z,1026.44
2023-02-12T11:12:39.146Z,1026.48
2023-02-12T11:13:39.076Z,1026.50
2023-02-12T11:14:39.056Z,1026.46
2023-02-12T11:15:39.059Z,1026.49
2023-02-12T11:16:39.084Z,1026.44
2023-02-12T11:17:39.032Z,1026.48
2023-02-12T11:18:39.016Z,1026.47
2023-02-12T11:19:39.037Z,1026.48
2023-02-12T11:20:38.996Z,1026.41
2023-02-12T11:21:39.023Z,1026.37
2023-02-12T11:22:38.995Z,1026.43
2023-02-12T11:23:38.959Z,1026.36
2023-02-12T11:24:38.968Z,1026.39
2023-02-12T11:25:38.952Z,1026.34
2023-02-12T11:26:38.923Z,1026.36
2023-02-12T11:27:38.956Z,1026.38
2023-02-12T11:28:39.026Z,1026.31
2023-02-12T11:29:38.931Z,1026.28
2023-02-12T11:30:38.982Z,1026.27
2023-02-12T11:31:38.929Z,1026.34
2023-02-12T11:32:38.936Z,1026.29
2023-02-12T11:33:38.842Z,1026.28
2023-02-12T11:34:38.832Z,1026.29
2023-02-12T11:35:38.832Z,1026.32
2023-02-12T11:36:38.841Z,1026.31
2023-02-12T11:37:38.807Z,1026.28
2023-02-12T11:38:38.810Z,1026.30
2023-02-12T11:39:38.762Z,1026.27
2023-02-12T11:40:38.792Z,1026.25
2023-02-12T11:41:38.738Z,1026.27
2023-02-12T11:42:38.769Z,1026.27
2023-02-12T11:43:38.743Z,1026.24
2023-02-12T11:44:38.720Z,1026.28
2023-02-12T11:45:38.789Z,1026.18
2023-02-12T11:46:38.717Z,1026.20
2023-02-12T11:47:38.693Z,1026.20
2023-02-12T11:48:38.700Z,1026.22
2023-02-12T11:49:38.653Z,1026.24
2023-02-12T11:50:38.775Z,1026.26
2023-02-12T11:51:38.624Z,1026.22
2023-02-12T11:52:38.640Z,1026.21
2023-02-12T11:53:38.593Z,1026.27
2023-02-12T11:54:38.626Z,1026.28
2023-02-12T11:55:38.570Z,1026.27
2023-02-12T11:56:38.634Z,1026.28
2023-02-12T11:57:38.568Z,1026.30
2023-02-12T11:58:38.547Z,1026.28
2023-02-12T11:59:38.528Z,1026.24
2023-02-12T12:00:38.589Z,1026.23
2023-02-12T12:01:38.501Z,1026.22
2023-02-12T12:02:38.617Z,1026.21
2023-02-12T12:03:38.497Z,1026.23
2023-02-12T12:04:38.502Z,1026.18
2023-02-12T12:05:38.481Z,1026.16